createdAt,value
2023-06-30T00:02:15.195Z,100.00
2023-06-30T00:05:26.795Z,100.00
2023-06-30T00:08:31.980Z,100.00
2023-06-30T00:11:34.889Z,100.00
2023-06-30T00:14:41.451Z,100.00
2023-06-30T00:17:46.027Z,100.00
2023-06-30T00:20:51.724Z,100.00
2023-06-30T00:23:55.465Z,100.00
2023-06-30T00:26:58.969Z,100.00
2023-06-30T00:30:02.639Z,100.00
2023-06-30T00:33:07.186Z,100.00
2023-06-30T00:36:12.137Z,100.00
2023-06-30T00:39:15.704Z,100.00
2023-06-30T00:42:26.373Z,100.00
2023-06-30T00:45:30.827Z,100.00
2023-06-30T00:48:36.879Z,100.00
2023-06-30T00:51:42.302Z,100.00
2023-06-30T00:54:45.510Z,100.00
2023-06-30T00:57:48.412Z,100.00
2023-06-30T01:00:55.195Z,100.00
2023-06-30T01:04:05.798Z,100.00
2023-06-30T01:07:17.308Z,100.00
2023-06-30T01:10:23.490Z,100.00
2023-06-30T01:13:27.748Z,100.00
2023-06-30T01:16:31.547Z,100.00
2023-06-30T01:19:40.442Z,100.00
2023-06-30T01:22:53.978Z,100.00
2023-06-30T01:25:57.407Z,100.00
2023-06-30T01:29:01.037Z,100.00
2023-06-30T01:32:04.541Z,100.00
2023-06-30T01:35:08.506Z,100.00
2023-06-30T01:38:10.888Z,100.00
2023-06-30T01:41:15.486Z,100.00
2023-06-30T01:44:19.487Z,100.00
2023-06-30T01:47:22.247Z,100.00
2023-06-30T01:50:30.513Z,100.00
2023-06-30T01:53:33.536Z,100.00
2023-06-30T01:56:37.955Z,100.00
2023-06-30T01:59:41.017Z,100.00
2023-06-30T02:02:44.328Z,100.00
2023-06-30T02:05:48.011Z,100.00
2023-06-30T02:08:52.246Z,100.00
2023-06-30T02:11:56.232Z,100.00
2023-06-30T02:14:59.649Z,100.00
2023-06-30T02:18:03.240Z,100.00
2023-06-30T02:21:08.189Z,100.00
2023-06-30T02:24:11.687Z,100.00
2023-06-30T02:27:15.398Z,100.00
2023-06-30T02:30:20.745Z,100.00
2023-06-30T02:33:25.936Z,100.00
2023-06-30T02:36:30.394Z,100.00
2023-06-30T02:39:33.469Z,100.00
2023-06-30T02:42:37.408Z,100.00
2023-06-30T02:45:42.196Z,100.00
2023-06-30T02:48:49.150Z,100.00
2023-06-30T02:51:52.523Z,100.00
2023-06-30T02:54:56.020Z,100.00
2023-06-30T02:58:01.534Z,100.00
2023-06-30T03:01:09.911Z,100.00
2023-06-30T03:04:17.488Z,100.00
2023-06-30T03:07:20.601Z,100.00
2023-06-30T03:10:24.389Z,100.00
2023-06-30T03:13:26.865Z,100.00
2023-06-30T03:16:31.930Z,100.00
2023-06-30T03:19:34.929Z,100.00
2023-06-30T03:22:39.439Z,100.00
2023-06-30T03:25:42.854Z,100.00
2023-06-30T03:28:46.310Z,100.00
2023-06-30T03:31:50.094Z,100.00
2023-06-30T03:34:53.351Z,100.00
2023-06-30T03:37:56.776Z,100.00
2023-06-30T03:41:01.303Z,100.00
2023-06-30T03:44:04.876Z,100.00
2023-06-30T03:47:09.285Z,100.00
2023-06-30T03:50:12.976Z,100.00
2023-06-30T03:53:17.916Z,100.00
2023-06-30T03:56:21.403Z,100.00
2023-06-30T03:59:25.638Z,100.00
2023-06-30T04:02:29.930Z,100.00
2023-06-30T04:05:32.536Z,100.00
2023-06-30T04:08:35.822Z,100.00
2023-06-30T04:11:39.181Z,100.00
2023-06-30T04:14:42.242Z,100.00
2023-06-30T04:17:45.467Z,100.00
2023-06-30T04:20:49.483Z,100.00
2023-06-30T04:23:52.909Z,100.00
2023-06-30T04:26:57.761Z,100.00
2023-06-30T04:30:00.742Z,100.00
2023-06-30T04:33:17.690Z,98.07
2023-06-30T04:36:22.595Z,94.81
2023-06-30T04:39:28.043Z,88.52
2023-06-30T04:42:32.475Z,82.47
2023-06-30T04:45:36.377Z,81.61
2023-06-30T04:48:40.083Z,82.18
2023-06-30T04:51:43.403Z,85.37
2023-06-30T04:54:47.298Z,89.58
2023-06-30T04:57:51.018Z,87.46
2023-06-30T05:00:57.998Z,86.37
2023-06-30T05:04:02.912Z,86.33
2023-06-30T05:07:06.091Z,87.08
2023-06-30T05:10:17.198Z,86.19
2023-06-30T05:13:21.933Z,83.02
2023-06-30T05:16:31.426Z,79.50
2023-06-30T05:19:38.961Z,79.11
2023-06-30T05:22:43.310Z,80.82
2023-06-30T05:25:49.029Z,78.05
2023-06-30T05:29:03.451Z,77.17
2023-06-30T05:32:09.657Z,74.98
2023-06-30T05:35:13.049Z,76.27
2023-06-30T05:38:16.071Z,77.06
2023-06-30T05:41:19.857Z,77.22
2023-06-30T05:44:23.290Z,78.14
2023-06-30T05:47:27.071Z,77.83
2023-06-30T05:50:32.602Z,77.26
2023-06-30T05:53:37.767Z,77.43
2023-06-30T05:56:44.018Z,76.71
2023-06-30T05:59:47.034Z,75.44
2023-06-30T06:02:50.774Z,75.40
2023-06-30T06:05:54.545Z,74.58
2023-06-30T06:08:58.081Z,73.68
2023-06-30T06:12:03.068Z,73.14
2023-06-30T06:15:06.871Z,72.02
2023-06-30T06:18:09.566Z,70.50
2023-06-30T06:21:13.587Z,70.27
2023-06-30T06:24:19.894Z,68.29
2023-06-30T06:27:22.931Z,67.77
2023-06-30T06:30:28.203Z,65.50
2023-06-30T06:33:32.995Z,66.50
2023-06-30T06:36:35.373Z,64.40
2023-06-30T06:39:42.127Z,61.96
2023-06-30T06:42:45.043Z,60.44
2023-06-30T06:45:48.794Z,61.93
2023-06-30T06:48:51.797Z,59.48
2023-06-30T06:51:57.273Z,59.39
2023-06-30T06:55:00.250Z,60.14
2023-06-30T06:58:03.155Z,60.89
2023-06-30T07:01:07.587Z,61.44
2023-06-30T07:04:11.533Z,59.76
2023-06-30T07:07:14.652Z,60.55
2023-06-30T07:10:19.087Z,61.90
2023-06-30T07:13:23.475Z,60.65
2023-06-30T07:16:28.387Z,59.99
2023-06-30T07:19:33.070Z,59.39
2023-06-30T07:22:36.708Z,58.40
2023-06-30T07:25:39.778Z,56.68
2023-06-30T07:28:43.694Z,53.60
2023-06-30T07:31:48.883Z,45.40
2023-06-30T07:34:53.863Z,42.16
2023-06-30T07:37:57.870Z,37.80
2023-06-30T07:41:01.123Z,31.65
2023-06-30T07:44:05.903Z,29.20
2023-06-30T07:47:11.865Z,27.02
2023-06-30T07:50:15.373Z,26.02
2023-06-30T07:53:18.045Z,28.24
2023-06-30T07:56:20.932Z,25.30
2023-06-30T07:59:23.638Z,24.67
2023-06-30T08:02:26.944Z,23.97
2023-06-30T08:05:29.873Z,26.21
2023-06-30T08:08:33.504Z,30.26
2023-06-30T08:11:36.621Z,28.99
2023-06-30T08:14:39.616Z,26.89
2023-06-30T08:17:55.309Z,26.51
2023-06-30T08:21:00.167Z,25.37
2023-06-30T08:24:02.582Z,24.87
2023-06-30T08:27:05.945Z,23.93
2023-06-30T08:30:08.576Z,25.65
2023-06-30T08:33:20.221Z,25.82
2023-06-30T08:36:30.132Z,27.99
2023-06-30T08:39:33.643Z,29.64
2023-06-30T08:42:38.448Z,30.67
2023-06-30T08:45:42.868Z,31.92
2023-06-30T08:48:48.484Z,32.84
2023-06-30T08:51:58.731Z,34.81
2023-06-30T08:55:04.441Z,34.47
2023-06-30T08:58:13.180Z,36.59
2023-06-30T09:01:24.262Z,35.25
2023-06-30T09:04:28.038Z,34.83
2023-06-30T09:07:34.344Z,34.35
2023-06-30T09:10:39.353Z,33.21
2023-06-30T09:13:42.742Z,33.70
2023-06-30T09:16:46.053Z,35.51
2023-06-30T09:19:48.940Z,35.01
2023-06-30T09:22:57.119Z,34.79
2023-06-30T09:26:00.346Z,36.30
2023-06-30T09:29:03.623Z,34.96
2023-06-30T09:32:07.670Z,34.31
2023-06-30T09:35:14.420Z,34.05
2023-06-30T09:38:18.652Z,33.91
2023-06-30T09:41:22.332Z,33.55
2023-06-30T09:44:24.929Z,34.32
2023-06-30T09:47:29.019Z,34.96
2023-06-30T09:50:32.507Z,35.56
2023-06-30T09:53:40.993Z,35.62
2023-06-30T09:56:44.360Z,34.66
2023-06-30T09:59:49.206Z,34.20
2023-06-30T10:03:02.901Z,33.85
2023-06-30T10:06:06.733Z,32.34
2023-06-30T10:09:09.732Z,32.15
2023-06-30T10:12:14.164Z,33.79
2023-06-30T10:15:17.745Z,34.11
2023-06-30T10:18:21.778Z,33.23
2023-06-30T10:21:24.696Z,33.21
2023-06-30T10:24:28.816Z,32.92
2023-06-30T10:27:32.778Z,32.38
2023-06-30T10:30:38.116Z,33.48
2023-06-30T10:33:41.165Z,34.37
2023-06-30T10:36:44.409Z,33.57
2023-06-30T10:39:49.295Z,33.72
2023-06-30T10:42:53.145Z,33.96
2023-06-30T10:46:11.341Z,32.51
2023-06-30T10:49:19.084Z,32.34
2023-06-30T10:52:28.850Z,33.23
2023-06-30T10:55:33.678Z,34.10
2023-06-30T10:58:42.827Z,33.38
2023-06-30T11:02:04.549Z,33.48
2023-06-30T11:05:25.764Z,32.78
2023-06-30T11:08:29.658Z,31.94
2023-06-30T11:11:53.937Z,32.34
2023-06-30T11:14:59.064Z,32.60
2023-06-30T11:18:03.369Z,32.24
2023-06-30T11:21:06.604Z,32.61
2023-06-30T11:24:18.406Z,31.99
2023-06-30T11:27:21.725Z,32.81
2023-06-30T11:30:27.549Z,33.09
2023-06-30T11:33:30.555Z,32.87
2023-06-30T11:36:33.837Z,31.92
2023-06-30T11:39:37.132Z,30.50
2023-06-30T11:42:43.338Z,31.94
2023-06-30T11:45:57.446Z,32.24
2023-06-30T11:49:04.754Z,31.45
2023-06-30T11:52:08.850Z,32.66
2023-06-30T11:55:14.243Z,33.31
2023-06-30T11:58:24.451Z,34.60
2023-06-30T12:01:28.431Z,32.99
2023-06-30T12:04:35.582Z,34.14
2023-06-30T12:07:38.900Z,33.65
2023-06-30T12:10:44.782Z,34.01
2023-06-30T12:13:49.041Z,33.43
2023-06-30T12:16:53.393Z,33.63
2023-06-30T12:19:57.475Z,31.71
2023-06-30T12:23:00.781Z,32.13
2023-06-30T12:26:07.138Z,31.91
2023-06-30T12:29:10.111Z,34.23
2023-06-30T12:32:13.125Z,32.77
2023-06-30T12:35:15.376Z,32.13
2023-06-30T12:38:19.976Z,31.86
2023-06-30T12:41:22.429Z,31.70
2023-06-30T12:44:25.358Z,33.87
2023-06-30T12:47:29.084Z,33.02
2023-06-30T12:50:31.440Z,32.17
2023-06-30T12:53:34.078Z,32.16
2023-06-30T12:56:37.026Z,32.34
2023-06-30T12:59:39.387Z,32.81
2023-06-30T13:02:42.171Z,32.21
2023-06-30T13:05:45.869Z,32.97
2023-06-30T13:08:48.448Z,32.71
2023-06-30T13:11:54.080Z,32.27
2023-06-30T13:14:59.963Z,31.87
2023-06-30T13:18:02.958Z,32.81
2023-06-30T13:21:07.773Z,32.73
2023-06-30T13:24:11.174Z,34.93
2023-06-30T13:27:14.260Z,33.96
2023-06-30T13:30:17.444Z,33.24
2023-06-30T13:33:21.408Z,32.23
2023-06-30T13:36:27.445Z,31.35
2023-06-30T13:39:32.000Z,32.41
2023-06-30T13:42:35.875Z,33.26
2023-06-30T13:45:39.399Z,33.23
2023-06-30T13:48:42.215Z,33.39
2023-06-30T13:51:45.036Z,32.67
2023-06-30T13:54:48.022Z,32.86
2023-06-30T13:57:50.611Z,33.82
2023-06-30T14:00:53.460Z,36.14
2023-06-30T14:03:56.735Z,34.22
2023-06-30T14:06:59.601Z,33.07
2023-06-30T14:10:02.697Z,34.28
2023-06-30T14:13:05.228Z,33.89
2023-06-30T14:16:08.248Z,34.35
2023-06-30T14:19:10.537Z,34.25
2023-06-30T14:22:13.927Z,33.78
2023-06-30T14:25:23.330Z,36.08
2023-06-30T14:28:25.944Z,33.21
2023-06-30T14:31:28.582Z,33.64
2023-06-30T14:34:32.213Z,34.19
2023-06-30T14:37:35.812Z,34.83
2023-06-30T14:40:39.622Z,34.14
2023-06-30T14:43:42.408Z,33.95
2023-06-30T14:46:44.834Z,33.30
2023-06-30T14:49:48.138Z,33.23
2023-06-30T14:52:50.644Z,32.80
2023-06-30T14:55:53.204Z,33.47
2023-06-30T14:58:56.534Z,32.72
2023-06-30T15:01:59.674Z,33.04
2023-06-30T15:05:02.766Z,33.66
2023-06-30T15:08:07.163Z,33.91
2023-06-30T15:11:10.202Z,33.82
2023-06-30T15:14:13.310Z,34.57
2023-06-30T15:17:16.188Z,34.14
2023-06-30T15:20:19.204Z,35.27
2023-06-30T15:23:22.279Z,34.50
2023-06-30T15:26:25.173Z,34.44
2023-06-30T15:29:27.660Z,34.32
2023-06-30T15:32:30.773Z,35.16
2023-06-30T15:35:33.964Z,34.98
2023-06-30T15:38:37.122Z,34.02
2023-06-30T15:41:39.850Z,34.30
2023-06-30T15:44:42.589Z,35.01
2023-06-30T15:47:45.450Z,34.76
2023-06-30T15:50:50.240Z,34.97
2023-06-30T15:53:53.015Z,35.96
2023-06-30T15:56:55.486Z,36.49
2023-06-30T15:59:58.586Z,36.04
2023-06-30T16:03:01.978Z,37.02
2023-06-30T16:06:05.238Z,35.62
2023-06-30T16:09:10.917Z,35.32
2023-06-30T16:12:14.145Z,35.48
2023-06-30T16:15:16.584Z,35.92
2023-06-30T16:18:19.663Z,37.16
2023-06-30T16:21:22.451Z,36.54
2023-06-30T16:24:29.638Z,36.64
2023-06-30T16:27:32.882Z,36.69
2023-06-30T16:30:35.407Z,37.10
2023-06-30T16:33:38.286Z,37.84
2023-06-30T16:36:41.292Z,37.75
2023-06-30T16:39:44.261Z,37.51
2023-06-30T16:42:48.923Z,37.75
2023-06-30T16:45:52.068Z,37.87
2023-06-30T16:48:55.606Z,38.16
2023-06-30T16:51:58.743Z,38.73
2023-06-30T16:55:01.746Z,38.01
2023-06-30T16:58:04.579Z,37.36
2023-06-30T17:01:07.341Z,37.95
2023-06-30T17:04:10.442Z,38.32
2023-06-30T17:07:13.719Z,38.08
2023-06-30T17:10:16.730Z,38.38
2023-06-30T17:13:19.721Z,38.50
2023-06-30T17:16:25.088Z,38.59
2023-06-30T17:19:29.582Z,39.20
2023-06-30T17:22:32.559Z,38.59
2023-06-30T17:25:35.783Z,39.02
2023-06-30T17:28:38.870Z,39.37
2023-06-30T17:31:42.969Z,40.78
2023-06-30T17:34:46.468Z,40.12
2023-06-30T17:37:50.129Z,40.95
2023-06-30T17:40:54.107Z,41.49
2023-06-30T17:43:56.179Z,41.37
2023-06-30T17:46:59.642Z,41.68
2023-06-30T17:50:02.950Z,41.56
2023-06-30T17:53:05.617Z,42.00
2023-06-30T17:56:09.438Z,42.99
2023-06-30T17:59:13.763Z,42.84
2023-06-30T18:02:18.538Z,43.61
2023-06-30T18:05:21.779Z,44.05
2023-06-30T18:08:25.624Z,44.50
2023-06-30T18:11:29.682Z,44.97
2023-06-30T18:14:33.818Z,45.62
2023-06-30T18:17:37.270Z,46.21
2023-06-30T18:20:41.474Z,47.36
2023-06-30T18:23:45.145Z,47.62
2023-06-30T18:26:50.574Z,47.44
2023-06-30T18:29:55.538Z,47.59
2023-06-30T18:32:58.561Z,48.19
2023-06-30T18:36:03.494Z,47.99
2023-06-30T18:39:07.456Z,48.45
2023-06-30T18:42:10.837Z,48.71
2023-06-30T18:45:13.678Z,50.15
2023-06-30T18:48:18.731Z,49.54
2023-06-30T18:51:21.534Z,50.15
2023-06-30T18:54:24.833Z,51.57
2023-06-30T18:57:28.359Z,52.59
2023-06-30T19:00:31.527Z,53.00
2023-06-30T19:03:34.938Z,54.19
2023-06-30T19:06:40.730Z,55.33
2023-06-30T19:09:44.600Z,56.14
2023-06-30T19:12:47.815Z,57.93
2023-06-30T19:15:50.968Z,58.57
2023-06-30T19:18:54.277Z,59.31
2023-06-30T19:21:57.922Z,60.81
2023-06-30T19:25:01.104Z,61.61
2023-06-30T19:28:04.627Z,62.14
2023-06-30T19:31:08.969Z,63.82
2023-06-30T19:34:12.833Z,63.87
2023-06-30T19:37:16.747Z,64.40
2023-06-30T19:40:20.568Z,64.46
2023-06-30T19:43:24.685Z,65.98
2023-06-30T19:46:30.965Z,66.40
2023-06-30T19:49:34.231Z,67.08
2023-06-30T19:52:38.769Z,67.46
2023-06-30T19:55:42.402Z,67.61
2023-06-30T19:58:45.875Z,68.71
2023-06-30T20:01:50.640Z,69.23
2023-06-30T20:04:54.547Z,69.40
2023-06-30T20:07:58.208Z,69.53
2023-06-30T20:11:01.002Z,71.45
2023-06-30T20:14:03.979Z,71.31
2023-06-30T20:17:09.866Z,71.99
2023-06-30T20:20:15.923Z,71.65
2023-06-30T20:23:18.593Z,72.65
2023-06-30T20:26:21.910Z,73.35
2023-06-30T20:29:24.966Z,73.62
2023-06-30T20:32:29.108Z,73.33
2023-06-30T20:35:33.149Z,73.42
2023-06-30T20:38:37.884Z,74.20
2023-06-30T20:41:41.259Z,74.09
2023-06-30T20:44:44.619Z,74.13
2023-06-30T20:47:49.445Z,74.25
2023-06-30T20:50:53.241Z,74.42
2023-06-30T20:53:55.640Z,75.31
2023-06-30T20:57:01.428Z,75.90
2023-06-30T21:00:06.087Z,75.76
2023-06-30T21:03:11.063Z,76.60
2023-06-30T21:06:18.262Z,76.77
2023-06-30T21:09:21.271Z,77.39
2023-06-30T21:12:24.646Z,77.63
2023-06-30T21:15:28.743Z,77.43
2023-06-30T21:18:31.923Z,77.54
2023-06-30T21:21:35.962Z,77.89
2023-06-30T21:24:39.237Z,77.23
2023-06-30T21:27:42.331Z,77.18
2023-06-30T21:30:48.105Z,78.56
2023-06-30T21:33:53.025Z,79.51
2023-06-30T21:36:56.300Z,79.23
2023-06-30T21:40:00.146Z,79.33
2023-06-30T21:43:03.629Z,79.81
2023-06-30T21:46:14.659Z,79.52
2023-06-30T21:49:20.046Z,79.74
2023-06-30T21:52:24.062Z,79.83
2023-06-30T21:55:28.220Z,79.81
2023-06-30T21:58:31.796Z,80.96
2023-06-30T22:01:41.146Z,81.56
2023-06-30T22:04:45.173Z,82.68
2023-06-30T22:07:48.734Z,82.05
2023-06-30T22:10:52.313Z,82.80
2023-06-30T22:13:55.430Z,81.78
2023-06-30T22:16:59.443Z,83.69
2023-06-30T22:20:02.700Z,84.01
2023-06-30T22:23:06.038Z,85.25
2023-06-30T22:26:09.486Z,84.53
2023-06-30T22:29:12.779Z,84.85
2023-06-30T22:32:16.024Z,85.48
2023-06-30T22:35:20.047Z,85.61
2023-06-30T22:38:24.018Z,85.97
2023-06-30T22:41:28.455Z,86.67
2023-06-30T22:44:31.668Z,86.70
2023-06-30T22:47:35.192Z,87.02
2023-06-30T22:50:38.289Z,87.30
2023-06-30T22:53:41.647Z,88.44
2023-06-30T22:56:45.444Z,88.81
2023-06-30T22:59:50.097Z,88.78
2023-06-30T23:02:54.718Z,88.59
2023-06-30T23:05:58.205Z,88.68
2023-06-30T23:09:02.317Z,89.68
2023-06-30T23:12:05.830Z,90.04
2023-06-30T23:15:09.942Z,90.21
2023-06-30T23:18:21.391Z,91.25
2023-06-30T23:21:31.087Z,89.99
2023-06-30T23:24:38.006Z,89.72
2023-06-30T23:27:41.619Z,91.54
2023-06-30T23:30:51.005Z,92.54
2023-06-30T23:33:57.891Z,92.30
2023-06-30T23:37:02.310Z,92.33
2023-06-30T23:40:06.468Z,93.50
2023-06-30T23:43:09.957Z,92.54
2023-06-30T23:46:30.512Z,92.77
2023-06-30T23:49:41.434Z,93.42
2023-06-30T23:52:46.868Z,93.68
2023-06-30T23:55:53.048Z,93.49
2023-06-30T23:58:57.067Z,94.13
